Time;durP1;ratioP1;P1;durP2;ratioP2;P2;SDS_P1;SDS_P2;PMS_P1;PMS_P2;Temp;Humidity;BMP_temperature;BMP_pressure;BME280_temperature;BME280_humidity;BME280_pressure;Samples;Min_cycle;Max_cycle;Signal;HPM_P1;HPM_P2
2023/03/11 00:02:10;;;;;;;25.17;17.80;;;;;;;0.85;100.00;99875.47;5015610;28;20213;-68
2023/03/11 00:04:35;;;;;;;23.80;15.60;;;;;;;0.87;100.00;99875.53;5017610;28;20289;-68
2023/03/11 00:07:01;;;;;;;26.83;17.20;;;;;;;0.86;100.00;99879.69;5015674;28;20277;-69
2023/03/11 00:09:26;;;;;;;22.93;16.30;;;;;;;0.89;100.00;99889.91;5015707;28;20726;-69
2023/03/11 00:11:52;;;;;;;27.13;15.87;;;;;;;0.89;100.00;99891.56;5016017;28;20252;-68
2023/03/11 00:14:17;;;;;;;24.93;15.83;;;;;;;0.91;100.00;99902.56;5011926;28;20249;-68
2023/03/11 00:16:42;;;;;;;21.00;15.60;;;;;;;0.91;100.00;99905.09;5013607;28;20288;-68
2023/03/11 00:19:09;;;;;;;24.37;16.67;;;;;;;0.88;100.00;99908.34;5015999;28;20286;-68
2023/03/11 00:21:35;;;;;;;24.13;15.80;;;;;;;0.89;100.00;99921.78;5009594;28;20203;-68
2023/03/11 00:24:02;;;;;;;23.67;15.60;;;;;;;0.90;100.00;99926.03;5015032;28;20620;-69
2023/03/11 00:26:28;;;;;;;23.17;14.90;;;;;;;0.88;100.00;99930.16;5013009;28;20286;-68
2023/03/11 00:28:54;;;;;;;21.87;15.50;;;;;;;0.89;100.00;99940.28;5018683;28;20830;-68
2023/03/11 00:31:20;;;;;;;21.03;15.13;;;;;;;0.91;100.00;99940.38;5011644;28;20847;-68
2023/03/11 00:33:46;;;;;;;20.90;14.37;;;;;;;0.90;100.00;99947.06;5012836;28;20202;-68
2023/03/11 00:36:23;;;;;;;21.20;15.47;;;;;;;0.86;100.00;99947.72;5012272;28;20215;-68
2023/03/11 00:38:48;;;;;;;20.47;14.80;;;;;;;0.88;100.00;99965.41;5013564;28;20202;-68
2023/03/11 00:41:14;;;;;;;21.10;15.00;;;;;;;0.87;100.00;99969.59;5011087;28;20269;-68
2023/03/11 00:43:39;;;;;;;25.30;16.77;;;;;;;0.86;100.00;99972.91;5014822;28;20765;-68
2023/03/11 00:46:05;;;;;;;24.07;16.90;;;;;;;0.86;100.00;99982.97;5013717;28;20810;-69
2023/03/11 00:48:30;;;;;;;22.47;16.07;;;;;;;0.86;100.00;99982.97;5015902;28;20621;-68
2023/03/11 00:50:57;;;;;;;24.67;16.73;;;;;;;0.86;100.00;99984.66;5013997;28;20257;-68
2023/03/11 00:53:22;;;;;;;24.77;16.43;;;;;;;0.84;100.00;99984.59;4993324;28;20318;-68
2023/03/11 00:55:48;;;;;;;22.73;16.97;;;;;;;0.87;100.00;99993.94;4994468;28;20267;-68
2023/03/11 00:58:14;;;;;;;26.07;17.43;;;;;;;0.86;100.00;99995.56;5007615;28;20203;-68
2023/03/11 01:00:43;;;;;;;25.63;17.63;;;;;;;0.87;100.00;100002.31;5012887;28;20214;-68
2023/03/11 01:03:09;;;;;;;26.23;18.00;;;;;;;0.87;100.00;100002.31;4997050;28;20733;-68
2023/03/11 01:05:35;;;;;;;26.13;18.33;;;;;;;0.88;100.00;100003.19;5016620;28;20183;-68
2023/03/11 01:08:02;;;;;;;25.67;18.63;;;;;;;0.90;100.00;100007.50;5012244;28;20198;-68
2023/03/11 01:10:29;;;;;;;25.47;18.13;;;;;;;0.90;100.00;100014.19;5010969;28;20215;-68
2023/03/11 01:12:55;;;;;;;28.53;19.37;;;;;;;0.90;100.00;100017.59;5013150;28;20199;-68
2023/03/11 01:15:30;;;;;;;27.67;18.97;;;;;;;0.90;100.00;100022.63;5013165;28;20590;-68
2023/03/11 01:17:58;;;;;;;28.40;19.37;;;;;;;0.89;100.00;100023.44;5009992;28;20741;-68
2023/03/11 01:20:23;;;;;;;27.10;19.10;;;;;;;0.91;100.00;100031.91;5013745;28;20215;-68
2023/03/11 01:22:49;;;;;;;28.63;19.17;;;;;;;0.91;100.00;100033.59;5011471;28;20273;-68
2023/03/11 01:25:17;;;;;;;28.50;19.50;;;;;;;0.93;100.00;100039.53;5011247;28;20733;-68
2023/03/11 01:27:43;;;;;;;28.23;19.03;;;;;;;0.92;100.00;100042.84;4991635;28;20253;-68
2023/03/11 01:30:13;;;;;;;29.53;19.93;;;;;;;0.93;100.00;100050.50;5015051;28;20219;-68
2023/03/11 01:32:39;;;;;;;28.00;19.23;;;;;;;0.93;100.00;100052.13;5008532;28;20794;-68
2023/03/11 01:35:05;;;;;;;28.17;19.20;;;;;;;0.91;100.00;100054.56;5010944;28;20306;-68
2023/03/11 01:37:31;;;;;;;29.83;19.80;;;;;;;0.94;100.00;100056.38;5010878;28;20270;-68
2023/03/11 01:39:56;;;;;;;29.87;18.50;;;;;;;0.95;100.00;100065.66;5015688;28;20762;-67
2023/03/11 01:42:21;;;;;;;30.93;19.73;;;;;;;0.96;100.00;100073.28;5011972;28;20270;-68
2023/03/11 01:44:47;;;;;;;29.60;19.47;;;;;;;0.95;100.00;100076.59;5009788;28;20294;-68
2023/03/11 01:47:13;;;;;;;30.97;20.93;;;;;;;0.93;100.00;100083.25;5011103;28;20197;-68
2023/03/11 01:49:40;;;;;;;28.23;20.20;;;;;;;0.94;100.00;100087.47;5012116;28;20219;-67
2023/03/11 01:52:07;;;;;;;28.43;19.53;;;;;;;0.94;100.00;100084.97;5011227;28;20199;-68
2023/03/11 01:54:40;;;;;;;28.73;20.10;;;;;;;0.95;100.00;100085.81;4996732;28;20226;-68
2023/03/11 01:57:11;;;;;;;31.03;20.30;;;;;;;0.94;100.00;100090.00;5009304;28;20762;-69
2023/03/11 01:59:41;;;;;;;29.23;19.90;;;;;;;0.95;100.00;100096.75;5009013;28;20218;-69
2023/03/11 02:02:16;;;;;;;30.03;19.63;;;;;;;0.96;100.00;100105.19;4994211;28;20222;-69
2023/03/11 02:04:42;;;;;;;29.97;20.50;;;;;;;0.95;100.00;100105.97;5014178;28;20194;-69
2023/03/11 02:07:10;;;;;;;30.50;20.50;;;;;;;0.94;100.00;100107.63;5010426;28;20192;-69
2023/03/11 02:09:36;;;;;;;30.13;19.47;;;;;;;0.93;100.00;100110.97;5010295;28;20377;-69
2023/03/11 02:12:04;;;;;;;29.00;19.57;;;;;;;0.91;100.00;100111.69;5011288;28;20191;-67
2023/03/11 02:14:30;;;;;;;29.10;18.83;;;;;;;0.89;100.00;100106.56;5012626;28;20200;-69
2023/03/11 02:16:56;;;;;;;27.83;19.63;;;;;;;0.89;100.00;100113.25;5009864;28;20230;-68
2023/03/11 02:19:56;;;;;;;28.37;19.03;;;;;;;0.89;100.00;100116.66;5012903;28;20213;-68
2023/03/11 02:22:23;;;;;;;27.20;18.33;;;;;;;0.88;100.00;100127.53;5011641;28;20192;-68
2023/03/11 02:25:08;;;;;;;29.93;19.83;;;;;;;0.88;100.00;100126.66;5008069;28;20203;-68
2023/03/11 02:27:40;;;;;;;27.97;19.33;;;;;;;0.87;100.00;100120.75;5009242;28;20183;-68
2023/03/11 02:30:09;;;;;;;26.87;18.73;;;;;;;0.79;100.00;100132.13;5008646;28;20237;-68
2023/03/11 02:32:36;;;;;;;27.30;18.20;;;;;;;0.80;100.00;100126.31;5027427;28;20202;-68
2023/03/11 02:35:04;;;;;;;27.43;19.17;;;;;;;0.79;100.00;100142.22;5007545;28;20191;-66
2023/03/11 02:37:29;;;;;;;25.20;18.03;;;;;;;0.82;100.00;100159.13;5013179;28;20722;-69
2023/03/11 02:40:29;;;;;;;27.00;19.53;;;;;;;0.83;100.00;100163.38;5011215;28;21197;-68
2023/03/11 02:42:58;;;;;;;27.07;17.63;;;;;;;0.82;100.00;100165.00;5007275;28;20370;-68
2023/03/11 02:45:26;;;;;;;26.23;18.60;;;;;;;0.85;100.00;100171.84;5010929;28;20203;-68
2023/03/11 02:47:54;;;;;;;26.10;17.30;;;;;;;0.85;100.00;100182.78;4993669;28;20201;-68
2023/03/11 02:50:20;;;;;;;27.47;17.63;;;;;;;0.86;100.00;100193.75;5010245;28;20249;-68
2023/03/11 02:52:47;;;;;;;26.37;18.67;;;;;;;0.86;100.00;100197.13;5011446;28;20790;-68
2023/03/11 02:55:15;;;;;;;24.50;17.47;;;;;;;0.84;100.00;100198.72;5010338;28;20273;-69
2023/03/11 02:57:41;;;;;;;23.03;16.40;;;;;;;0.84;100.00;100208.78;5012850;28;20203;-68
2023/03/11 03:00:12;;;;;;;25.50;17.33;;;;;;;0.82;100.00;100215.41;5009337;28;20272;-68
2023/03/11 03:02:40;;;;;;;23.57;16.93;;;;;;;0.83;100.00;100218.78;5024982;28;20289;-68
2023/03/11 03:05:07;;;;;;;26.27;17.00;;;;;;;0.83;100.00;100226.34;5007530;28;20190;-68
2023/03/11 03:07:33;;;;;;;22.77;16.57;;;;;;;0.84;100.00;100231.47;5013974;28;20663;-68
2023/03/11 03:09:59;;;;;;;23.73;16.13;;;;;;;0.84;100.00;100233.97;5008099;28;20221;-68
2023/03/11 03:12:25;;;;;;;24.27;17.00;;;;;;;0.85;100.00;100234.81;5008410;28;20191;-68
2023/03/11 03:14:51;;;;;;;24.30;16.47;;;;;;;0.84;100.00;100239.03;5003983;28;20839;-68
2023/03/11 03:17:17;;;;;;;25.43;16.70;;;;;;;0.82;100.00;100235.53;5012497;28;20183;-68
2023/03/11 03:19:42;;;;;;;21.83;16.53;;;;;;;0.81;100.00;100243.03;5009975;28;20227;-68
2023/03/11 03:22:07;;;;;;;24.90;16.73;;;;;;;0.79;100.00;100249.66;5010340;28;20202;-68
2023/03/11 03:24:33;;;;;;;25.13;16.10;;;;;;;0.77;100.00;100246.22;5007095;28;20207;-68
2023/03/11 03:26:58;;;;;;;23.70;16.23;;;;;;;0.74;100.00;100254.50;5012431;28;20199;-68
2023/03/11 03:29:24;;;;;;;22.53;16.47;;;;;;;0.74;100.00;100262.06;5007958;28;20342;-68
2023/03/11 03:31:50;;;;;;;24.47;16.87;;;;;;;0.69;100.00;100258.41;4996133;28;20576;-68
2023/03/11 03:34:15;;;;;;;22.87;16.43;;;;;;;0.68;100.00;100268.44;5008429;28;20653;-68
2023/03/11 03:36:41;;;;;;;25.47;17.53;;;;;;;0.69;100.00;100272.69;5005097;28;20215;-68
2023/03/11 03:39:06;;;;;;;23.50;16.67;;;;;;;0.68;100.00;100281.03;5009352;28;20218;-68
2023/03/11 03:41:35;;;;;;;24.80;16.73;;;;;;;0.64;100.00;100280.00;5005956;28;20290;-67
2023/03/11 03:44:01;;;;;;;24.00;16.93;;;;;;;0.63;100.00;100288.34;5008146;28;20198;-68
2023/03/11 03:46:28;;;;;;;22.07;16.13;;;;;;;0.63;100.00;100292.53;5010134;28;20187;-68
2023/03/11 03:48:56;;;;;;;21.63;15.50;;;;;;;0.59;100.00;100306.59;5007810;28;20643;-68
2023/03/11 03:51:21;;;;;;;22.37;16.23;;;;;;;0.61;100.00;100307.56;4991183;28;20297;-67
2023/03/11 03:53:59;;;;;;;23.57;15.60;;;;;;;0.61;100.00;100316.75;5008232;28;20257;-68
2023/03/11 03:56:25;;;;;;;23.33;15.47;;;;;;;0.55;100.00;100321.50;4995089;28;20297;-68
2023/03/11 03:58:52;;;;;;;19.90;15.07;;;;;;;0.59;100.00;100330.94;5009413;28;20274;-68
2023/03/11 04:01:18;;;;;;;21.47;15.00;;;;;;;0.58;100.00;100322.50;4993065;28;20729;-68
2023/03/11 04:03:44;;;;;;;20.87;15.37;;;;;;;0.58;100.00;100320.00;5007458;28;20194;-68
2023/03/11 04:06:21;;;;;;;20.97;15.53;;;;;;;0.57;100.00;100324.94;5008910;28;20198;-68
2023/03/11 04:08:53;;;;;;;21.23;15.33;;;;;;;0.54;100.00;100333.22;5022986;28;20562;-67
2023/03/11 04:11:21;;;;;;;20.30;15.00;;;;;;;0.55;100.00;100339.13;5005435;28;20216;-69
2023/03/11 04:13:47;;;;;;;23.03;15.90;;;;;;;0.55;100.00;100337.47;5011376;28;20193;-67
2023/03/11 04:16:19;;;;;;;22.90;15.67;;;;;;;0.52;100.00;100338.16;5007386;28;20218;-66
2023/03/11 04:18:44;;;;;;;21.97;15.20;;;;;;;0.51;100.00;100339.75;5009494;28;20222;-69
2023/03/11 04:21:10;;;;;;;21.27;14.50;;;;;;;0.50;100.00;100353.16;5010678;28;20251;-68
2023/03/11 04:23:36;;;;;;;19.10;13.90;;;;;;;0.51;100.00;100350.72;4999089;28;20190;-66
2023/03/11 04:26:02;;;;;;;19.60;14.70;;;;;;;0.49;100.00;100351.41;5010596;28;20183;-68
2023/03/11 04:28:28;;;;;;;18.83;13.90;;;;;;;0.51;100.00;100354.88;5013205;28;20207;-68
2023/03/11 04:30:54;;;;;;;19.30;13.60;;;;;;;0.49;100.00;100357.31;5007683;28;20223;-68
2023/03/11 04:33:20;;;;;;;19.17;13.60;;;;;;;0.49;100.00;100351.41;5015922;28;20272;-68
2023/03/11 04:35:45;;;;;;;18.37;13.40;;;;;;;0.52;100.00;100360.84;5011595;28;20211;-68
2023/03/11 04:38:11;;;;;;;20.50;13.60;;;;;;;0.52;100.00;100364.16;5013931;28;20287;-68
2023/03/11 04:40:37;;;;;;;20.67;14.20;;;;;;;0.51;100.00;100368.34;5012435;28;20716;-68
2023/03/11 04:43:03;;;;;;;19.53;13.80;;;;;;;0.47;100.00;100359.75;5016184;28;20241;-68
2023/03/11 04:45:28;;;;;;;18.73;13.50;;;;;;;0.48;100.00;100363.13;5009508;28;20683;-68
2023/03/11 04:47:56;;;;;;;19.33;13.47;;;;;;;0.46;100.00;100371.41;5016261;28;20248;-68
2023/03/11 04:50:22;;;;;;;17.60;12.87;;;;;;;0.46;100.00;100372.25;5010552;28;20211;-68
2023/03/11 04:52:47;;;;;;;19.87;13.80;;;;;;;0.43;100.00;100371.22;5012478;28;20194;-68
2023/03/11 04:55:14;;;;;;;19.97;12.80;;;;;;;0.36;100.00;100370.03;5012947;28;20219;-68
2023/03/11 04:57:42;;;;;;;22.03;14.37;;;;;;;0.30;100.00;100372.25;5016919;28;20206;-68
2023/03/11 05:00:11;;;;;;;19.80;14.27;;;;;;;0.24;100.00;100387.06;5012556;28;20301;-68
2023/03/11 05:02:40;;;;;;;24.13;14.00;;;;;;;0.22;100.00;100381.06;5009248;28;20202;-68
2023/03/11 05:05:08;;;;;;;20.43;13.60;;;;;;;0.14;100.00;100385.69;5012587;28;20246;-68
2023/03/11 05:07:35;;;;;;;19.53;13.40;;;;;;;0.11;100.00;100388.03;4993541;28;20716;-68
2023/03/11 05:10:02;;;;;;;19.63;13.87;;;;;;;0.06;100.00;100391.97;5011227;28;20211;-68
2023/03/11 05:12:29;;;;;;;21.63;13.70;;;;;;;0.04;100.00;100402.72;5008784;28;20187;-68
2023/03/11 05:14:54;;;;;;;21.53;13.80;;;;;;;-0.02;100.00;100403.28;5010563;28;20282;-68
2023/03/11 05:17:21;;;;;;;19.67;13.23;;;;;;;-0.08;100.00;100412.16;5008502;28;20731;-68
2023/03/11 05:19:48;;;;;;;18.40;13.33;;;;;;;-0.14;100.00;100415.19;5010637;28;20224;-68
2023/03/11 05:22:21;;;;;;;18.03;12.60;;;;;;;-0.13;100.00;100429.50;5009890;28;20187;-68
2023/03/11 05:24:47;;;;;;;19.57;13.37;;;;;;;-0.10;100.00;100424.66;5013284;28;20191;-69
2023/03/11 05:27:16;;;;;;;22.67;14.00;;;;;;;-0.07;100.00;100432.38;5006511;28;20758;-68
2023/03/11 05:29:44;;;;;;;22.43;13.63;;;;;;;-0.07;100.00;100439.91;5012973;28;20268;-68
2023/03/11 05:32:11;;;;;;;20.63;13.80;;;;;;;-0.04;100.00;100447.59;5009389;28;20225;-68
2023/03/11 05:34:37;;;;;;;24.10;15.23;;;;;;;-0.04;100.00;100442.56;5014318;28;20292;-69
2023/03/11 05:37:04;;;;;;;20.77;14.63;;;;;;;-0.02;100.00;100447.69;5010369;28;20262;-68
2023/03/11 05:39:30;;;;;;;22.90;16.17;;;;;;;-0.02;100.00;100446.06;5019727;28;20233;-68
2023/03/11 05:41:56;;;;;;;24.57;16.10;;;;;;;-0.06;100.00;100460.88;5011151;28;20195;-69
2023/03/11 05:44:22;;;;;;;24.33;16.00;;;;;;;-0.09;100.00;100471.66;5011847;28;20665;-68
2023/03/11 05:46:48;;;;;;;23.70;15.50;;;;;;;-0.10;100.00;100472.44;5009169;28;20187;-68
2023/03/11 05:49:13;;;;;;;25.43;16.63;;;;;;;-0.12;100.00;100483.19;5015068;28;20286;-67
2023/03/11 05:51:39;;;;;;;22.57;15.57;;;;;;;-0.09;100.00;100488.41;5013017;28;20264;-67
2023/03/11 05:54:10;;;;;;;22.90;16.17;;;;;;;-0.07;100.00;100497.78;4996236;28;20203;-67
2023/03/11 05:56:38;;;;;;;23.87;15.80;;;;;;;-0.07;100.00;100494.38;5032901;28;20306;-67
2023/03/11 05:59:03;;;;;;;23.00;16.30;;;;;;;-0.03;100.00;100501.31;5013605;28;20281;-67
2023/03/11 06:01:32;;;;;;;21.53;15.17;;;;;;;-0.05;100.00;100502.88;5011579;28;20203;-67
2023/03/11 06:03:59;;;;;;;22.00;14.33;;;;;;;-0.03;100.00;100512.22;5012065;28;20194;-67
2023/03/11 06:06:25;;;;;;;23.03;15.47;;;;;;;0.05;100.00;100512.69;5013097;28;20192;-67
2023/03/11 06:08:50;;;;;;;24.00;15.90;;;;;;;0.09;100.00;100520.47;5011204;28;20260;-67
2023/03/11 06:11:18;;;;;;;23.27;15.13;;;;;;;0.14;100.00;100531.66;5012374;28;20215;-67
2023/03/11 06:13:44;;;;;;;21.90;14.77;;;;;;;0.11;100.00;100526.44;4995187;28;20248;-68
2023/03/11 06:16:10;;;;;;;22.77;15.93;;;;;;;0.08;100.00;100531.31;5011996;28;20281;-67
2023/03/11 06:18:35;;;;;;;20.07;13.77;;;;;;;0.09;100.00;100529.66;5010771;28;20195;-67
2023/03/11 06:21:03;;;;;;;20.83;14.33;;;;;;;0.14;100.00;100530.81;5013083;28;20273;-67
2023/03/11 06:23:31;;;;;;;21.90;13.83;;;;;;;0.10;100.00;100531.41;5011527;28;20191;-67
2023/03/11 06:26:04;;;;;;;21.27;14.30;;;;;;;0.06;100.00;100535.38;5013787;28;20706;-67
2023/03/11 06:28:34;;;;;;;17.10;12.47;;;;;;;0.03;100.00;100536.88;5006376;28;20631;-68
2023/03/11 06:31:19;;;;;;;17.60;12.23;;;;;;;0.04;100.00;100549.53;5013801;28;20226;-68
2023/03/11 06:33:45;;;;;;;19.97;13.30;;;;;;;0.03;100.00;100550.34;5013154;28;20202;-67
2023/03/11 06:36:12;;;;;;;20.30;13.40;;;;;;;0.08;100.00;100556.47;5011370;28;20237;-67
2023/03/11 06:38:38;;;;;;;21.87;14.23;;;;;;;0.15;100.00;100556.03;5014685;28;20202;-68
2023/03/11 06:41:05;;;;;;;21.60;13.53;;;;;;;0.22;100.00;100552.19;5010411;28;20211;-68
2023/03/11 06:43:34;;;;;;;19.53;12.57;;;;;;;0.27;100.00;100560.00;5008999;28;20198;-68
2023/03/11 06:46:01;;;;;;;18.80;12.63;;;;;;;0.30;100.00;100571.13;5014310;28;20203;-68
2023/03/11 06:48:27;;;;;;;20.40;13.10;;;;;;;0.32;100.00;100572.94;5004894;28;20274;-68
2023/03/11 06:50:57;;;;;;;20.00;13.13;;;;;;;0.32;100.00;100572.94;5014225;28;20218;-68
2023/03/11 06:53:24;;;;;;;20.90;13.43;;;;;;;0.43;100.00;100580.19;5008606;28;20202;-69
2023/03/11 06:56:07;;;;;;;24.27;12.63;;;;;;;0.52;100.00;100584.09;5018102;28;20225;-68
2023/03/11 06:58:41;;;;;;;17.73;12.00;;;;;;;0.65;100.00;100585.63;5002942;28;20226;-69
2023/03/11 07:01:11;;;;;;;18.87;11.77;;;;;;;0.68;100.00;100593.34;5012239;28;20213;-69
2023/03/11 07:03:37;;;;;;;16.03;10.83;;;;;;;0.75;100.00;100596.28;5007352;28;20195;-69
2023/03/11 07:06:02;;;;;;;15.10;11.57;;;;;;;0.88;100.00;100593.63;5014007;28;20183;-69
2023/03/11 07:08:29;;;;;;;16.10;10.57;;;;;;;1.05;100.00;100597.03;5007620;28;20194;-69
2023/03/11 07:11:07;;;;;;;17.73;11.40;;;;;;;1.16;100.00;100606.88;5013048;28;20238;-69
2023/03/11 07:13:34;;;;;;;15.40;10.77;;;;;;;1.28;100.00;100607.50;5007160;28;20202;-69
2023/03/11 07:16:09;;;;;;;17.13;10.83;;;;;;;1.46;100.00;100608.44;5012550;28;20223;-69
2023/03/11 07:18:37;;;;;;;14.90;10.60;;;;;;;1.50;100.00;100617.03;5006023;28;20187;-69
2023/03/11 07:21:05;;;;;;;18.30;10.83;;;;;;;1.66;100.00;100629.66;5011129;28;20218;-68
2023/03/11 07:23:31;;;;;;;14.90;10.90;;;;;;;1.77;100.00;100623.47;5010246;28;20210;-69
2023/03/11 07:25:57;;;;;;;13.13;10.00;;;;;;;1.87;100.00;100630.72;5013768;28;20187;-68
2023/03/11 07:28:24;;;;;;;17.53;10.03;;;;;;;1.96;100.00;100634.56;5011332;28;20538;-68
2023/03/11 07:30:50;;;;;;;13.70;10.17;;;;;;;2.02;100.00;100631.50;5014396;28;20218;-68
2023/03/11 07:33:16;;;;;;;12.80;8.90;;;;;;;2.16;100.00;100636.41;5009396;28;20960;-69
2023/03/11 07:35:42;;;;;;;11.73;9.57;;;;;;;2.27;100.00;100635.28;5012361;28;20222;-69
2023/03/11 07:38:07;;;;;;;12.97;9.20;;;;;;;2.38;100.00;100639.19;5011773;28;20198;-68
2023/03/11 07:40:34;;;;;;;12.60;9.37;;;;;;;2.50;100.00;100641.44;5013000;28;20215;-69
2023/03/11 07:42:59;;;;;;;14.17;8.93;;;;;;;2.57;100.00;100648.53;5007046;28;20219;-69
2023/03/11 07:45:24;;;;;;;10.07;8.13;;;;;;;2.69;100.00;100656.66;5013231;28;20233;-68
2023/03/11 07:47:50;;;;;;;11.10;8.20;;;;;;;2.78;100.00;100652.03;5013998;28;20664;-68
2023/03/11 07:50:16;;;;;;;11.60;8.03;;;;;;;3.03;100.00;100658.28;5010846;28;20878;-68
2023/03/11 07:52:42;;;;;;;12.00;8.00;;;;;;;2.99;100.00;100658.09;5014771;28;20209;-68
2023/03/11 07:55:08;;;;;;;9.43;7.47;;;;;;;3.12;100.00;100666.31;5012884;28;20191;-68
2023/03/11 07:57:34;;;;;;;11.70;7.40;;;;;;;3.16;100.00;100674.88;5019081;28;20197;-69
2023/03/11 07:59:59;;;;;;;10.30;7.27;;;;;;;3.40;100.00;100673.50;5011935;28;20276;-69
2023/03/11 08:02:25;;;;;;;9.13;7.30;;;;;;;3.31;100.00;100678.97;5016364;28;20206;-69
2023/03/11 08:04:50;;;;;;;9.60;7.77;;;;;;;3.38;100.00;100682.66;5014152;28;20661;-69
2023/03/11 08:07:16;;;;;;;11.23;8.07;;;;;;;3.62;100.00;100671.97;5016651;28;20195;-69
2023/03/11 08:09:41;;;;;;;10.83;7.27;;;;;;;3.51;100.00;100669.75;5015079;28;20219;-69
2023/03/11 08:12:07;;;;;;;12.23;7.83;;;;;;;3.69;100.00;100691.66;5017291;28;20194;-69
2023/03/11 08:14:33;;;;;;;12.80;7.93;;;;;;;3.81;100.00;100694.75;5016912;28;20221;-68
2023/03/11 08:16:58;;;;;;;10.07;6.33;;;;;;;4.03;100.00;100671.19;5017033;28;20711;-69
2023/03/11 08:19:23;;;;;;;8.50;6.30;;;;;;;4.02;100.00;100684.66;5013762;28;20284;-69
2023/03/11 08:21:49;;;;;;;7.87;6.40;;;;;;;4.32;100.00;100685.97;5013084;28;20202;-69
2023/03/11 08:24:15;;;;;;;7.80;6.30;;;;;;;4.30;100.00;100673.22;5012815;28;20191;-69
2023/03/11 08:26:41;;;;;;;7.90;5.93;;;;;;;4.52;100.00;100652.16;5016251;28;20289;-69
2023/03/11 08:29:06;;;;;;;9.10;6.80;;;;;;;4.83;100.00;100677.91;5014132;28;20282;-69
2023/03/11 08:31:33;;;;;;;7.77;6.20;;;;;;;4.71;100.00;100658.00;5016363;28;20848;-69
2023/03/11 08:34:05;;;;;;;8.57;6.80;;;;;;;4.95;100.00;100625.97;5013952;28;20670;-68
2023/03/11 08:36:31;;;;;;;7.33;5.67;;;;;;;5.25;100.00;100599.19;5015282;28;20281;-69
2023/03/11 08:38:57;;;;;;;9.00;5.87;;;;;;;5.22;100.00;100567.75;5013158;28;20187;-68
2023/03/11 08:41:23;;;;;;;8.27;5.93;;;;;;;5.34;100.00;100545.38;5015304;28;20273;-68
2023/03/11 08:43:51;;;;;;;7.60;5.40;;;;;;;5.51;100.00;100550.22;5011786;28;20202;-68
2023/03/11 08:46:32;;;;;;;5.70;4.63;;;;;;;5.55;100.00;100541.88;5009997;28;20230;-68
2023/03/11 08:48:58;;;;;;;7.67;5.17;;;;;;;5.82;100.00;100506.41;5000124;28;20206;-68
2023/03/11 08:51:24;;;;;;;7.93;5.50;;;;;;;5.78;100.00;100502.88;5007332;28;20293;-69
2023/03/11 08:53:51;;;;;;;8.53;5.87;;;;;;;5.96;100.00;100548.38;5014657;28;20209;-68
2023/03/11 08:56:17;;;;;;;9.40;4.70;;;;;;;6.08;100.00;100531.84;5011528;28;20329;-68
2023/03/11 08:58:43;;;;;;;8.33;5.73;;;;;;;6.36;100.00;100478.50;5009496;28;20247;-68
2023/03/11 09:01:11;;;;;;;7.63;4.67;;;;;;;6.61;100.00;100435.16;5011269;28;20226;-68
2023/03/11 09:03:37;;;;;;;6.33;4.97;;;;;;;6.97;100.00;100397.16;5009442;28;20244;-68
2023/03/11 09:06:06;;;;;;;9.03;5.27;;;;;;;7.01;100.00;100401.50;5010323;28;20210;-69
2023/03/11 09:08:32;;;;;;;6.57;4.80;;;;;;;7.44;100.00;100373.72;5015726;28;20206;-69
2023/03/11 09:10:57;;;;;;;8.47;4.83;;;;;;;7.91;100.00;100319.59;5011264;28;20218;-68
2023/03/11 09:13:23;;;;;;;7.90;4.70;;;;;;;8.07;100.00;100247.72;5016949;28;20684;-68
2023/03/11 09:15:49;;;;;;;5.03;4.53;;;;;;;8.39;100.00;100199.06;5012644;28;20559;-68
2023/03/11 09:18:16;;;;;;;5.90;4.73;;;;;;;8.98;100.00;100177.06;4993795;28;20648;-68
2023/03/11 09:20:41;;;;;;;6.03;4.35;;;;;;;9.27;100.00;100122.97;5011579;28;20872;-68
2023/03/11 09:23:09;;;;;;;7.97;4.60;;;;;;;12.37;89.99;99926.59;5012565;28;20199;-69
2023/03/11 09:25:34;;;;;;;5.63;4.35;;;;;;;15.97;55.81;99496.09;5013728;28;20191;-69
2023/03/11 09:28:00;;;;;;;4.93;4.43;;;;;;;17.90;45.67;99281.72;5002148;28;20198;-69
2023/03/11 09:30:26;;;;;;;5.25;4.60;;;;;;;19.17;40.45;100358.47;5008614;28;20222;-69
2023/03/11 09:32:51;;;;;;;5.32;4.68;;;;;;;21.02;35.46;100515.78;5013672;28;20802;-68
2023/03/11 09:35:17;;;;;;;5.38;4.85;;;;;;;20.67;35.02;100560.97;5002276;28;20222;-68
2023/03/11 09:37:42;;;;;;;5.18;4.68;;;;;;;21.12;34.03;100590.16;5016479;28;20198;-68
2023/03/11 09:40:14;;;;;;;5.28;4.45;;;;;;;20.98;33.55;100613.13;5013274;28;20238;-68
2023/03/11 09:43:13;;;;;;;4.78;4.20;;;;;;;22.08;32.30;100622.09;5007049;28;20210;-67
2023/03/11 09:45:52;;;;;;;4.32;3.80;;;;;;;22.97;30.74;100628.75;5007864;28;20199;-67
2023/03/11 09:48:33;;;;;;;6.00;3.92;;;;;;;22.52;30.69;100648.56;5004923;28;20202;-69
2023/03/11 09:51:16;;;;;;;4.68;3.63;;;;;;;22.61;30.17;100654.31;4994320;28;20223;-69
2023/03/11 09:53:44;;;;;;;5.07;3.80;;;;;;;23.71;29.05;100653.09;5009570;28;20210;-68
2023/03/11 09:56:19;;;;;;;4.97;3.85;;;;;;;23.91;28.57;100650.59;5006641;28;20711;-67
2023/03/11 09:58:50;;;;;;;4.20;3.80;;;;;;;23.96;28.52;100651.25;5007172;28;20209;-66
2023/03/11 10:01:20;;;;;;;4.43;4.00;;;;;;;24.72;27.66;100642.94;5006622;28;20219;-67
2023/03/11 10:03:47;;;;;;;4.78;3.45;;;;;;;24.09;28.10;100655.13;5006232;28;20191;-68
2023/03/11 10:06:24;;;;;;;6.35;3.80;;;;;;;24.79;27.04;100657.50;5006569;28;20245;-67
2023/03/11 10:09:11;;;;;;;4.30;3.90;;;;;;;25.13;27.45;100660.41;5005116;28;20389;-67
2023/03/11 10:11:37;;;;;;;3.78;3.47;;;;;;;25.82;27.07;100665.16;5008192;28;20234;-67
2023/03/11 10:14:39;;;;;;;4.20;3.28;;;;;;;25.87;25.35;100662.34;5007708;28;20227;-66
2023/03/11 10:17:23;;;;;;;4.97;3.67;;;;;;;25.87;25.47;100670.22;4987454;28;20221;-67
2023/03/11 10:20:01;;;;;;;3.78;3.38;;;;;;;25.13;25.79;100670.03;5004838;28;20222;-66
2023/03/11 10:22:49;;;;;;;6.07;3.30;;;;;;;25.33;26.57;100676.13;5002267;28;20190;-67
2023/03/11 10:25:23;;;;;;;4.85;3.15;;;;;;;25.27;26.07;100684.28;5003990;28;20559;-67
2023/03/11 10:27:53;;;;;;;4.82;2.88;;;;;;;26.79;25.06;100672.75;5004322;28;20191;-67
2023/03/11 10:30:36;;;;;;;4.13;3.00;;;;;;;25.09;25.84;100674.56;5013206;28;20289;-67
2023/03/11 10:33:10;;;;;;;5.00;3.00;;;;;;;25.61;25.36;100679.28;5012433;28;20244;-67
2023/03/11 10:35:39;;;;;;;3.67;3.30;;;;;;;24.50;26.39;100688.38;5013911;28;20234;-66
2023/03/11 10:38:15;;;;;;;4.70;3.20;;;;;;;25.28;26.20;100693.00;5009915;28;20207;-67
2023/03/11 10:40:46;;;;;;;4.75;3.65;;;;;;;26.34;25.96;100695.16;5014659;28;20275;-66
2023/03/11 10:43:27;;;;;;;5.63;3.80;;;;;;;26.36;25.58;100696.78;5008245;28;20202;-67
2023/03/11 10:45:53;;;;;;;5.82;3.53;;;;;;;25.13;26.25;100704.09;5011950;28;20229;-67
2023/03/11 10:48:21;;;;;;;3.92;3.25;;;;;;;27.31;24.48;100689.44;5010042;28;20191;-67
2023/03/11 10:50:52;;;;;;;5.60;3.65;;;;;;;25.92;25.12;100702.38;4995539;28;20236;-66
2023/03/11 10:53:19;;;;;;;3.17;2.88;;;;;;;26.49;25.04;100708.41;5010095;28;20265;-66
2023/03/11 10:55:53;;;;;;;3.88;3.22;;;;;;;27.24;24.15;100702.03;5016120;28;20214;-65
2023/03/11 10:58:25;;;;;;;4.43;3.08;;;;;;;27.24;23.96;100693.28;5010115;28;20228;-66
2023/03/11 11:01:12;;;;;;;3.35;3.05;;;;;;;27.36;24.17;100700.56;5011545;28;20225;-66
2023/03/11 11:03:42;;;;;;;5.03;3.20;;;;;;;28.75;22.87;100699.91;5012559;28;20224;-67
2023/03/11 11:06:19;;;;;;;4.25;3.20;;;;;;;28.75;22.46;100698.13;5009949;28;20219;-67
2023/03/11 11:08:45;;;;;;;3.28;2.92;;;;;;;28.43;22.49;100695.59;5011122;28;20205;-67
2023/03/11 11:11:23;;;;;;;3.60;2.83;;;;;;;28.27;21.67;100705.28;5011432;28;20274;-66
2023/03/11 11:13:59;;;;;;;3.58;2.60;;;;;;;29.77;21.90;100704.31;5012563;28;20201;-67
2023/03/11 11:16:25;;;;;;;4.78;2.78;;;;;;;29.73;21.56;100711.56;5013232;28;20579;-67
2023/03/11 11:19:13;;;;;;;4.38;2.92;;;;;;;29.06;22.11;100713.88;5012707;28;20206;-67
2023/03/11 11:21:42;;;;;;;4.80;2.88;;;;;;;30.57;21.31;100704.47;5014867;28;20200;-67